sensor_id;sensor_type;location;lat;lon;timestamp;P1;durP1;ratioP1;P2;durP2;ratioP2
51529;SDS011;37613;51.788;21.582;2022-08-11T00:01:53;8.70;;;4.10;;
51529;SDS011;37613;51.788;21.582;2022-08-11T00:05:56;9.10;;;4.70;;
51529;SDS011;37613;51.788;21.582;2022-08-11T00:09:58;11.60;;;4.40;;
51529;SDS011;37613;51.788;21.582;2022-08-11T00:18:04;8.70;;;4.10;;
51529;SDS011;37613;51.788;21.582;2022-08-11T00:22:07;7.30;;;4.00;;
51529;SDS011;37613;51.788;21.582;2022-08-11T00:26:14;5.80;;;3.60;;
51529;SDS011;37613;51.788;21.582;2022-08-11T00:30:18;7.00;;;4.00;;
51529;SDS011;37613;51.788;21.582;2022-08-11T00:34:27;9.20;;;3.70;;
51529;SDS011;37613;51.788;21.582;2022-08-11T00:56:22;9.40;;;4.40;;
51529;SDS011;37613;51.788;21.582;2022-08-11T01:00:32;7.20;;;3.90;;
51529;SDS011;37613;51.788;21.582;2022-08-11T01:05:05;8.70;;;4.50;;
51529;SDS011;37613;51.788;21.582;2022-08-11T01:13:37;8.00;;;3.90;;
51529;SDS011;37613;51.788;21.582;2022-08-11T01:30:59;7.30;;;3.90;;
51529;SDS011;37613;51.788;21.582;2022-08-11T01:49:36;4.40;;;2.80;;
51529;SDS011;37613;51.788;21.582;2022-08-11T01:58:31;9.60;;;2.90;;
51529;SDS011;37613;51.788;21.582;2022-08-11T02:07:03;9.20;;;3.10;;
51529;SDS011;37613;51.788;21.582;2022-08-11T02:11:31;5.10;;;3.00;;
51529;SDS011;37613;51.788;21.582;2022-08-11T02:15:38;6.10;;;3.10;;
51529;SDS011;37613;51.788;21.582;2022-08-11T02:19:50;6.50;;;3.10;;
51529;SDS011;37613;51.788;21.582;2022-08-11T02:24:16;5.40;;;2.90;;
51529;SDS011;37613;51.788;21.582;2022-08-11T02:33:19;6.50;;;3.00;;
51529;SDS011;37613;51.788;21.582;2022-08-11T02:46:25;4.80;;;3.00;;
51529;SDS011;37613;51.788;21.582;2022-08-11T02:50:35;5.30;;;3.00;;
51529;SDS011;37613;51.788;21.582;2022-08-11T02:59:06;6.80;;;2.80;;
51529;SDS011;37613;51.788;21.582;2022-08-11T03:03:46;6.30;;;2.80;;
51529;SDS011;37613;51.788;21.582;2022-08-11T03:08:13;6.30;;;3.40;;
51529;SDS011;37613;51.788;21.582;2022-08-11T03:26:29;4.80;;;2.40;;
51529;SDS011;37613;51.788;21.582;2022-08-11T03:30:38;7.70;;;2.60;;
51529;SDS011;37613;51.788;21.582;2022-08-11T03:34:48;6.90;;;3.00;;
51529;SDS011;37613;51.788;21.582;2022-08-11T03:43:11;7.50;;;2.70;;
51529;SDS011;37613;51.788;21.582;2022-08-11T03:47:44;3.60;;;2.70;;
51529;SDS011;37613;51.788;21.582;2022-08-11T04:10:53;4.30;;;2.60;;
51529;SDS011;37613;51.788;21.582;2022-08-11T04:20:42;4.70;;;2.40;;
51529;SDS011;37613;51.788;21.582;2022-08-11T04:42:54;3.40;;;2.40;;
51529;SDS011;37613;51.788;21.582;2022-08-11T04:56:50;5.40;;;2.20;;
51529;SDS011;37613;51.788;21.582;2022-08-11T05:01:29;6.40;;;2.10;;
51529;SDS011;37613;51.788;21.582;2022-08-11T05:14:51;4.90;;;1.70;;
51529;SDS011;37613;51.788;21.582;2022-08-11T05:19:18;4.30;;;1.90;;
51529;SDS011;37613;51.788;21.582;2022-08-11T05:23:41;2.00;;;1.50;;
51529;SDS011;37613;51.788;21.582;2022-08-11T05:28:12;1.90;;;1.40;;
51529;SDS011;37613;51.788;21.582;2022-08-11T05:32:36;3.00;;;1.60;;
51529;SDS011;37613;51.788;21.582;2022-08-11T05:37:04;5.10;;;1.80;;
51529;SDS011;37613;51.788;21.582;2022-08-11T05:41:12;8.00;;;1.80;;
51529;SDS011;37613;51.788;21.582;2022-08-11T05:45:34;6.00;;;1.50;;
51529;SDS011;37613;51.788;21.582;2022-08-11T05:49:55;4.20;;;1.40;;
51529;SDS011;37613;51.788;21.582;2022-08-11T05:54:16;1.90;;;1.40;;
51529;SDS011;37613;51.788;21.582;2022-08-11T05:58:38;2.50;;;1.60;;
51529;SDS011;37613;51.788;21.582;2022-08-11T06:02:42;3.80;;;1.50;;
51529;SDS011;37613;51.788;21.582;2022-08-11T06:11:04;7.20;;;1.30;;
51529;SDS011;37613;51.788;21.582;2022-08-11T06:15:06;2.50;;;1.40;;
51529;SDS011;37613;51.788;21.582;2022-08-11T06:19:11;3.80;;;1.50;;
51529;SDS011;37613;51.788;21.582;2022-08-11T06:23:15;3.50;;;1.90;;
51529;SDS011;37613;51.788;21.582;2022-08-11T06:27:24;4.30;;;2.30;;
51529;SDS011;37613;51.788;21.582;2022-08-11T06:31:27;2.90;;;1.10;;
51529;SDS011;37613;51.788;21.582;2022-08-11T06:40:27;4.20;;;2.30;;
51529;SDS011;37613;51.788;21.582;2022-08-11T06:44:42;23.40;;;10.50;;
51529;SDS011;37613;51.788;21.582;2022-08-11T06:49:00;1.40;;;1.20;;
51529;SDS011;37613;51.788;21.582;2022-08-11T06:53:07;3.60;;;1.20;;
51529;SDS011;37613;51.788;21.582;2022-08-11T06:57:11;1.90;;;1.20;;
51529;SDS011;37613;51.788;21.582;2022-08-11T07:05:54;1.60;;;1.20;;
51529;SDS011;37613;51.788;21.582;2022-08-11T07:10:32;2.20;;;1.00;;
51529;SDS011;37613;51.788;21.582;2022-08-11T07:15:06;1.50;;;1.30;;
51529;SDS011;37613;51.788;21.582;2022-08-11T07:19:30;5.90;;;2.70;;
51529;SDS011;37613;51.788;21.582;2022-08-11T07:23:51;3.20;;;1.80;;
51529;SDS011;37613;51.788;21.582;2022-08-11T07:28:20;3.30;;;1.80;;
51529;SDS011;37613;51.788;21.582;2022-08-11T07:32:50;5.40;;;1.70;;
51529;SDS011;37613;51.788;21.582;2022-08-11T07:37:00;3.50;;;1.30;;
51529;SDS011;37613;51.788;21.582;2022-08-11T07:41:09;1.60;;;1.00;;
51529;SDS011;37613;51.788;21.582;2022-08-11T07:45:13;8.40;;;2.50;;
51529;SDS011;37613;51.788;21.582;2022-08-11T07:49:36;3.10;;;1.10;;
51529;SDS011;37613;51.788;21.582;2022-08-11T07:53:57;2.00;;;1.10;;
51529;SDS011;37613;51.788;21.582;2022-08-11T07:57:59;1.70;;;1.20;;
51529;SDS011;37613;51.788;21.582;2022-08-11T08:02:20;1.70;;;1.00;;
51529;SDS011;37613;51.788;21.582;2022-08-11T08:06:41;0.80;;;0.80;;
51529;SDS011;37613;51.788;21.582;2022-08-11T08:11:02;1.30;;;0.80;;
51529;SDS011;37613;51.788;21.582;2022-08-11T08:15:24;2.70;;;0.80;;
51529;SDS011;37613;51.788;21.582;2022-08-11T08:19:48;1.80;;;0.70;;
51529;SDS011;37613;51.788;21.582;2022-08-11T08:23:51;2.80;;;0.80;;
51529;SDS011;37613;51.788;21.582;2022-08-11T08:27:53;4.30;;;0.90;;
51529;SDS011;37613;51.788;21.582;2022-08-11T08:31:56;3.00;;;0.70;;
51529;SDS011;37613;51.788;21.582;2022-08-11T08:36:03;2.40;;;0.70;;
51529;SDS011;37613;51.788;21.582;2022-08-11T08:40:12;2.00;;;0.80;;
51529;SDS011;37613;51.788;21.582;2022-08-11T08:48:18;0.70;;;0.70;;
51529;SDS011;37613;51.788;21.582;2022-08-11T08:52:25;6.80;;;0.90;;
51529;SDS011;37613;51.788;21.582;2022-08-11T08:56:31;0.90;;;0.80;;
51529;SDS011;37613;51.788;21.582;2022-08-11T09:00:39;2.40;;;0.70;;
51529;SDS011;37613;51.788;21.582;2022-08-11T09:04:44;1.60;;;0.80;;
51529;SDS011;37613;51.788;21.582;2022-08-11T09:08:48;2.40;;;0.90;;
51529;SDS011;37613;51.788;21.582;2022-08-11T09:12:51;0.70;;;0.70;;
51529;SDS011;37613;51.788;21.582;2022-08-11T09:17:04;3.40;;;0.80;;
51529;SDS011;37613;51.788;21.582;2022-08-11T09:21:06;3.80;;;0.80;;
51529;SDS011;37613;51.788;21.582;2022-08-11T09:25:08;1.20;;;0.60;;
51529;SDS011;37613;51.788;21.582;2022-08-11T09:29:29;3.50;;;0.90;;
51529;SDS011;37613;51.788;21.582;2022-08-11T09:33:31;4.30;;;0.80;;
51529;SDS011;37613;51.788;21.582;2022-08-11T09:41:55;1.70;;;0.60;;
51529;SDS011;37613;51.788;21.582;2022-08-11T09:45:58;4.70;;;0.80;;
51529;SDS011;37613;51.788;21.582;2022-08-11T09:50:02;1.00;;;0.70;;
51529;SDS011;37613;51.788;21.582;2022-08-11T09:54:05;0.90;;;0.70;;
51529;SDS011;37613;51.788;21.582;2022-08-11T09:58:09;3.90;;;0.80;;
51529;SDS011;37613;51.788;21.582;2022-08-11T10:02:16;1.90;;;0.70;;
51529;SDS011;37613;51.788;21.582;2022-08-11T10:06:24;2.70;;;0.60;;
51529;SDS011;37613;51.788;21.582;2022-08-11T10:10:47;4.50;;;0.70;;
51529;SDS011;37613;51.788;21.582;2022-08-11T10:14:55;1.70;;;0.80;;
51529;SDS011;37613;51.788;21.582;2022-08-11T10:19:21;1.90;;;0.90;;
51529;SDS011;37613;51.788;21.582;2022-08-11T10:23:25;1.00;;;0.70;;
51529;SDS011;37613;51.788;21.582;2022-08-11T10:27:49;3.00;;;0.70;;
51529;SDS011;37613;51.788;21.582;2022-08-11T10:31:58;1.40;;;0.70;;
51529;SDS011;37613;51.788;21.582;2022-08-11T10:36:20;2.00;;;0.70;;
51529;SDS011;37613;51.788;21.582;2022-08-11T10:44:24;0.80;;;0.70;;
51529;SDS011;37613;51.788;21.582;2022-08-11T10:48:27;28.30;;;2.50;;
51529;SDS011;37613;51.788;21.582;2022-08-11T10:52:32;3.10;;;0.80;;
51529;SDS011;37613;51.788;21.582;2022-08-11T10:56:54;6.40;;;0.50;;
51529;SDS011;37613;51.788;21.582;2022-08-11T11:01:17;2.50;;;1.50;;
51529;SDS011;37613;51.788;21.582;2022-08-11T11:05:28;4.50;;;0.90;;
51529;SDS011;37613;51.788;21.582;2022-08-11T11:09:39;0.60;;;0.50;;
51529;SDS011;37613;51.788;21.582;2022-08-11T11:13:50;1.90;;;0.30;;
51529;SDS011;37613;51.788;21.582;2022-08-11T11:18:23;1.60;;;0.80;;
51529;SDS011;37613;51.788;21.582;2022-08-11T11:22:29;1.30;;;0.60;;
51529;SDS011;37613;51.788;21.582;2022-08-11T11:31:24;1.00;;;0.60;;
51529;SDS011;37613;51.788;21.582;2022-08-11T11:35:29;3.30;;;0.60;;
51529;SDS011;37613;51.788;21.582;2022-08-11T11:40:01;1.40;;;0.40;;
51529;SDS011;37613;51.788;21.582;2022-08-11T11:44:10;1.00;;;0.50;;
51529;SDS011;37613;51.788;21.582;2022-08-11T11:48:14;1.60;;;0.70;;
51529;SDS011;37613;51.788;21.582;2022-08-11T11:56:21;2.40;;;1.00;;
51529;SDS011;37613;51.788;21.582;2022-08-11T12:00:24;1.60;;;0.80;;
51529;SDS011;37613;51.788;21.582;2022-08-11T12:04:45;3.80;;;1.10;;
51529;SDS011;37613;51.788;21.582;2022-08-11T12:08:49;1.00;;;0.70;;
51529;SDS011;37613;51.788;21.582;2022-08-11T12:12:55;1.50;;;1.00;;
51529;SDS011;37613;51.788;21.582;2022-08-11T12:17:18;1.00;;;0.60;;
51529;SDS011;37613;51.788;21.582;2022-08-11T12:21:22;1.30;;;0.50;;
51529;SDS011;37613;51.788;21.582;2022-08-11T12:25:25;0.70;;;0.50;;
51529;SDS011;37613;51.788;21.582;2022-08-11T12:29:46;13.20;;;1.50;;
51529;SDS011;37613;51.788;21.582;2022-08-11T12:33:58;6.30;;;1.20;;
51529;SDS011;37613;51.788;21.582;2022-08-11T12:38:04;6.40;;;1.10;;
51529;SDS011;37613;51.788;21.582;2022-08-11T12:42:09;3.00;;;1.10;;
51529;SDS011;37613;51.788;21.582;2022-08-11T12:46:33;1.10;;;0.70;;
51529;SDS011;37613;51.788;21.582;2022-08-11T12:50:40;3.80;;;0.90;;
51529;SDS011;37613;51.788;21.582;2022-08-11T12:55:02;1.90;;;0.90;;
51529;SDS011;37613;51.788;21.582;2022-08-11T12:59:11;6.80;;;1.10;;
51529;SDS011;37613;51.788;21.582;2022-08-11T13:03:33;3.70;;;1.00;;
51529;SDS011;37613;51.788;21.582;2022-08-11T13:07:54;4.30;;;1.00;;
51529;SDS011;37613;51.788;21.582;2022-08-11T13:11:56;3.10;;;1.20;;
51529;SDS011;37613;51.788;21.582;2022-08-11T13:16:17;1.20;;;0.70;;
51529;SDS011;37613;51.788;21.582;2022-08-11T13:20:21;1.60;;;0.90;;
51529;SDS011;37613;51.788;21.582;2022-08-11T13:24:24;5.30;;;1.00;;
51529;SDS011;37613;51.788;21.582;2022-08-11T13:28:28;3.60;;;1.20;;
51529;SDS011;37613;51.788;21.582;2022-08-11T13:32:31;7.00;;;1.60;;
51529;SDS011;37613;51.788;21.582;2022-08-11T13:36:34;4.20;;;1.10;;
51529;SDS011;37613;51.788;21.582;2022-08-11T13:40:36;5.60;;;1.00;;
51529;SDS011;37613;51.788;21.582;2022-08-11T13:44:40;2.10;;;1.00;;
51529;SDS011;37613;51.788;21.582;2022-08-11T13:48:43;2.70;;;1.10;;
51529;SDS011;37613;51.788;21.582;2022-08-11T13:52:46;1.20;;;0.80;;
51529;SDS011;37613;51.788;21.582;2022-08-11T13:56:51;2.60;;;0.80;;
51529;SDS011;37613;51.788;21.582;2022-08-11T14:00:56;4.80;;;0.90;;
51529;SDS011;37613;51.788;21.582;2022-08-11T14:05:15;2.00;;;0.90;;
51529;SDS011;37613;51.788;21.582;2022-08-11T14:09:21;2.90;;;1.10;;
51529;SDS011;37613;51.788;21.582;2022-08-11T14:13:26;3.00;;;1.50;;
51529;SDS011;37613;51.788;21.582;2022-08-11T14:17:41;4.60;;;1.00;;
51529;SDS011;37613;51.788;21.582;2022-08-11T14:21:43;4.10;;;1.30;;
51529;SDS011;37613;51.788;21.582;2022-08-11T14:26:05;1.40;;;0.90;;
51529;SDS011;37613;51.788;21.582;2022-08-11T14:30:26;1.10;;;0.70;;
51529;SDS011;37613;51.788;21.582;2022-08-11T14:34:47;1.40;;;0.70;;
51529;SDS011;37613;51.788;21.582;2022-08-11T14:38:51;2.30;;;0.80;;
51529;SDS011;37613;51.788;21.582;2022-08-11T14:42:54;1.40;;;1.20;;
51529;SDS011;37613;51.788;21.582;2022-08-11T14:47:14;0.80;;;0.80;;
51529;SDS011;37613;51.788;21.582;2022-08-11T14:51:20;1.70;;;0.70;;
51529;SDS011;37613;51.788;21.582;2022-08-11T14:55:25;1.20;;;0.70;;
51529;SDS011;37613;51.788;21.582;2022-08-11T14:59:48;1.70;;;0.60;;
51529;SDS011;37613;51.788;21.582;2022-08-11T15:03:51;1.70;;;0.70;;
51529;SDS011;37613;51.788;21.582;2022-08-11T15:07:54;1.40;;;1.00;;
51529;SDS011;37613;51.788;21.582;2022-08-11T15:11:58;1.60;;;0.90;;
51529;SDS011;37613;51.788;21.582;2022-08-11T15:16:09;2.80;;;0.90;;
51529;SDS011;37613;51.788;21.582;2022-08-11T15:20:30;1.90;;;1.00;;
51529;SDS011;37613;51.788;21.582;2022-08-11T15:24:51;2.50;;;1.20;;
51529;SDS011;37613;51.788;21.582;2022-08-11T15:28:53;2.80;;;1.20;;
51529;SDS011;37613;51.788;21.582;2022-08-11T15:33:15;4.00;;;1.20;;
51529;SDS011;37613;51.788;21.582;2022-08-11T15:37:37;3.40;;;1.60;;
51529;SDS011;37613;51.788;21.582;2022-08-11T15:41:55;2.60;;;1.20;;
51529;SDS011;37613;51.788;21.582;2022-08-11T15:46:25;4.30;;;1.10;;
51529;SDS011;37613;51.788;21.582;2022-08-11T15:50:32;4.20;;;1.90;;
51529;SDS011;37613;51.788;21.582;2022-08-11T15:54:39;8.20;;;6.80;;
51529;SDS011;37613;51.788;21.582;2022-08-11T15:58:45;4.60;;;1.80;;
51529;SDS011;37613;51.788;21.582;2022-08-11T16:03:06;2.80;;;1.10;;
51529;SDS011;37613;51.788;21.582;2022-08-11T16:07:29;14.90;;;10.90;;
51529;SDS011;37613;51.788;21.582;2022-08-11T16:11:35;2.10;;;1.50;;
51529;SDS011;37613;51.788;21.582;2022-08-11T16:15:44;9.70;;;4.70;;
51529;SDS011;37613;51.788;21.582;2022-08-11T16:20:09;2.10;;;1.90;;
51529;SDS011;37613;51.788;21.582;2022-08-11T16:24:18;5.60;;;4.70;;
51529;SDS011;37613;51.788;21.582;2022-08-11T16:28:22;6.50;;;3.90;;
51529;SDS011;37613;51.788;21.582;2022-08-11T16:32:25;2.50;;;1.40;;
51529;SDS011;37613;51.788;21.582;2022-08-11T16:36:28;4.60;;;1.40;;
51529;SDS011;37613;51.788;21.582;2022-08-11T16:40:51;3.50;;;1.70;;
51529;SDS011;37613;51.788;21.582;2022-08-11T16:44:55;2.90;;;1.50;;
51529;SDS011;37613;51.788;21.582;2022-08-11T16:49:34;8.40;;;4.40;;
51529;SDS011;37613;51.788;21.582;2022-08-11T16:53:39;8.70;;;5.10;;
51529;SDS011;37613;51.788;21.582;2022-08-11T16:57:44;7.70;;;4.30;;
51529;SDS011;37613;51.788;21.582;2022-08-11T17:02:06;5.40;;;3.30;;
51529;SDS011;37613;51.788;21.582;2022-08-11T17:06:13;2.20;;;1.80;;
51529;SDS011;37613;51.788;21.582;2022-08-11T17:10:35;5.30;;;2.60;;
51529;SDS011;37613;51.788;21.582;2022-08-11T17:15:01;7.10;;;3.70;;
51529;SDS011;37613;51.788;21.582;2022-08-11T17:19:27;6.20;;;2.90;;
51529;SDS011;37613;51.788;21.582;2022-08-11T17:23:34;5.90;;;3.50;;
51529;SDS011;37613;51.788;21.582;2022-08-11T17:27:52;6.50;;;2.80;;
51529;SDS011;37613;51.788;21.582;2022-08-11T17:31:56;9.40;;;3.50;;
51529;SDS011;37613;51.788;21.582;2022-08-11T17:36:20;4.30;;;3.40;;
51529;SDS011;37613;51.788;21.582;2022-08-11T17:40:24;8.60;;;4.40;;
51529;SDS011;37613;51.788;21.582;2022-08-11T17:44:27;8.50;;;5.20;;
51529;SDS011;37613;51.788;21.582;2022-08-11T17:52:53;8.50;;;5.10;;
51529;SDS011;37613;51.788;21.582;2022-08-11T17:57:14;10.30;;;4.90;;
51529;SDS011;37613;51.788;21.582;2022-08-11T18:01:37;9.00;;;4.40;;
51529;SDS011;37613;51.788;21.582;2022-08-11T18:05:41;7.50;;;3.80;;
51529;SDS011;37613;51.788;21.582;2022-08-11T18:09:46;7.60;;;4.20;;
51529;SDS011;37613;51.788;21.582;2022-08-11T18:14:06;6.80;;;4.40;;
51529;SDS011;37613;51.788;21.582;2022-08-11T18:18:29;7.00;;;4.10;;
51529;SDS011;37613;51.788;21.582;2022-08-11T18:22:50;6.60;;;4.00;;
51529;SDS011;37613;51.788;21.582;2022-08-11T18:27:12;8.00;;;5.50;;
51529;SDS011;37613;51.788;21.582;2022-08-11T18:31:36;9.80;;;5.50;;
51529;SDS011;37613;51.788;21.582;2022-08-11T18:36:01;7.70;;;5.10;;
51529;SDS011;37613;51.788;21.582;2022-08-11T18:40:23;9.50;;;5.20;;
51529;SDS011;37613;51.788;21.582;2022-08-11T18:44:46;9.60;;;5.50;;
51529;SDS011;37613;51.788;21.582;2022-08-11T18:49:13;4.40;;;3.60;;
51529;SDS011;37613;51.788;21.582;2022-08-11T18:53:36;4.20;;;2.80;;
51529;SDS011;37613;51.788;21.582;2022-08-11T18:58:02;4.50;;;3.00;;
51529;SDS011;37613;51.788;21.582;2022-08-11T19:02:24;8.00;;;4.30;;
51529;SDS011;37613;51.788;21.582;2022-08-11T19:06:47;10.60;;;5.30;;
51529;SDS011;37613;51.788;21.582;2022-08-11T19:11:11;14.50;;;6.80;;
51529;SDS011;37613;51.788;21.582;2022-08-11T19:15:34;11.60;;;5.30;;
51529;SDS011;37613;51.788;21.582;2022-08-11T19:19:55;10.00;;;5.30;;
51529;SDS011;37613;51.788;21.582;2022-08-11T19:24:17;10.40;;;4.60;;
51529;SDS011;37613;51.788;21.582;2022-08-11T19:28:38;8.90;;;4.60;;
51529;SDS011;37613;51.788;21.582;2022-08-11T19:33:01;7.20;;;4.90;;
51529;SDS011;37613;51.788;21.582;2022-08-11T19:37:23;15.00;;;8.20;;
51529;SDS011;37613;51.788;21.582;2022-08-11T19:41:44;11.90;;;6.70;;
51529;SDS011;37613;51.788;21.582;2022-08-11T19:46:06;10.50;;;5.20;;
51529;SDS011;37613;51.788;21.582;2022-08-11T19:50:30;9.50;;;4.70;;
51529;SDS011;37613;51.788;21.582;2022-08-11T19:54:52;11.70;;;5.00;;
51529;SDS011;37613;51.788;21.582;2022-08-11T19:59:13;8.50;;;4.90;;
51529;SDS011;37613;51.788;21.582;2022-08-11T20:03:35;8.60;;;4.70;;
51529;SDS011;37613;51.788;21.582;2022-08-11T20:07:56;6.70;;;4.40;;
51529;SDS011;37613;51.788;21.582;2022-08-11T20:12:18;8.20;;;4.60;;
51529;SDS011;37613;51.788;21.582;2022-08-11T20:16:41;8.30;;;5.10;;
51529;SDS011;37613;51.788;21.582;2022-08-11T20:21:03;7.20;;;4.50;;
51529;SDS011;37613;51.788;21.582;2022-08-11T20:25:24;8.60;;;5.50;;
51529;SDS011;37613;51.788;21.582;2022-08-11T20:29:46;11.20;;;4.70;;
51529;SDS011;37613;51.788;21.582;2022-08-11T20:34:08;7.20;;;4.60;;
51529;SDS011;37613;51.788;21.582;2022-08-11T20:38:32;13.00;;;5.70;;
51529;SDS011;37613;51.788;21.582;2022-08-11T20:42:54;9.70;;;5.00;;
51529;SDS011;37613;51.788;21.582;2022-08-11T20:47:16;8.30;;;4.80;;
51529;SDS011;37613;51.788;21.582;2022-08-11T20:51:37;10.90;;;6.10;;
51529;SDS011;37613;51.788;21.582;2022-08-11T20:55:59;7.80;;;4.90;;
51529;SDS011;37613;51.788;21.582;2022-08-11T21:00:19;8.90;;;5.70;;
51529;SDS011;37613;51.788;21.582;2022-08-11T21:04:40;10.30;;;6.50;;
51529;SDS011;37613;51.788;21.582;2022-08-11T21:09:02;12.10;;;7.70;;
51529;SDS011;37613;51.788;21.582;2022-08-11T21:13:29;10.00;;;6.70;;
51529;SDS011;37613;51.788;21.582;2022-08-11T21:17:53;14.00;;;8.70;;
51529;SDS011;37613;51.788;21.582;2022-08-11T21:22:17;10.70;;;6.60;;
51529;SDS011;37613;51.788;21.582;2022-08-11T21:26:40;11.10;;;6.60;;
51529;SDS011;37613;51.788;21.582;2022-08-11T21:31:02;6.80;;;5.30;;
51529;SDS011;37613;51.788;21.582;2022-08-11T21:35:27;10.00;;;5.50;;
51529;SDS011;37613;51.788;21.582;2022-08-11T21:39:50;7.20;;;4.80;;
51529;SDS011;37613;51.788;21.582;2022-08-11T21:44:12;8.30;;;5.10;;
51529;SDS011;37613;51.788;21.582;2022-08-11T21:48:33;8.30;;;5.10;;
51529;SDS011;37613;51.788;21.582;2022-08-11T21:52:57;8.10;;;4.50;;
51529;SDS011;37613;51.788;21.582;2022-08-11T21:57:19;5.90;;;4.30;;
51529;SDS011;37613;51.788;21.582;2022-08-11T22:01:41;9.40;;;4.10;;
51529;SDS011;37613;51.788;21.582;2022-08-11T22:06:03;4.70;;;3.80;;
51529;SDS011;37613;51.788;21.582;2022-08-11T22:10:24;6.60;;;3.70;;
51529;SDS011;37613;51.788;21.582;2022-08-11T22:14:45;4.40;;;3.50;;
51529;SDS011;37613;51.788;21.582;2022-08-11T22:19:06;4.50;;;3.40;;
51529;SDS011;37613;51.788;21.582;2022-08-11T22:23:27;5.00;;;3.40;;
51529;SDS011;37613;51.788;21.582;2022-08-11T22:27:51;4.60;;;3.40;;
51529;SDS011;37613;51.788;21.582;2022-08-11T22:32:12;6.20;;;3.80;;
51529;SDS011;37613;51.788;21.582;2022-08-11T22:36:34;5.00;;;3.80;;
51529;SDS011;37613;51.788;21.582;2022-08-11T22:40:56;4.90;;;3.40;;
51529;SDS011;37613;51.788;21.582;2022-08-11T22:45:17;6.60;;;3.40;;
51529;SDS011;37613;51.788;21.582;2022-08-11T22:49:39;7.20;;;3.50;;
51529;SDS011;37613;51.788;21.582;2022-08-11T22:54:01;4.90;;;3.60;;
51529;SDS011;37613;51.788;21.582;2022-08-11T22:58:23;7.60;;;3.10;;
51529;SDS011;37613;51.788;21.582;2022-08-11T23:02:45;5.40;;;2.80;;
51529;SDS011;37613;51.788;21.582;2022-08-11T23:07:07;5.30;;;3.70;;
51529;SDS011;37613;51.788;21.582;2022-08-11T23:11:29;4.70;;;3.30;;
51529;SDS011;37613;51.788;21.582;2022-08-11T23:15:50;6.20;;;3.80;;
51529;SDS011;37613;51.788;21.582;2022-08-11T23:20:16;4.40;;;3.10;;
51529;SDS011;37613;51.788;21.582;2022-08-11T23:24:37;4.70;;;3.20;;
51529;SDS011;37613;51.788;21.582;2022-08-11T23:28:57;7.90;;;3.20;;
51529;SDS011;37613;51.788;21.582;2022-08-11T23:33:18;4.00;;;3.10;;
51529;SDS011;37613;51.788;21.582;2022-08-11T23:37:41;4.60;;;3.40;;
51529;SDS011;37613;51.788;21.582;2022-08-11T23:42:01;5.50;;;3.60;;
51529;SDS011;37613;51.788;21.582;2022-08-11T23:46:22;5.70;;;3.60;;
51529;SDS011;37613;51.788;21.582;2022-08-11T23:50:45;7.10;;;3.90;;
51529;SDS011;37613;51.788;21.582;2022-08-11T23:55:07;4.80;;;3.50;;
51529;SDS011;37613;51.788;21.582;2022-08-11T23:59:28;4.70;;;3.60;;
